Time;durP1;ratioP1;P1;durP2;ratioP2;P2;SDS_P1;SDS_P2;PMS_P1;PMS_P2;Temp;Humidity;BMP_temperature;BMP_pressure;BME280_temperature;BME280_humidity;BME280_pressure;Samples;Min_cycle;Max_cycle;Signal;HPM_P1;HPM_P2
2022/02/02 00:00:40;;;;;;;7.10;1.20;;;;;;;4.03;88.42;98684.91;10446287;28;20059;-75
2022/02/02 00:26:43;;;;;;;6.75;2.20;;;;;;;4.09;89.58;98687.34;10321252;28;20047;-75
2022/02/02 00:31:52;;;;;;;10.80;1.85;;;;;;;4.19;89.31;98699.19;10336584;28;20058;-75
2022/02/02 00:41:56;;;;;;;10.10;2.75;;;;;;;4.34;87.83;98718.75;10336491;28;20082;-75
2022/02/02 00:46:58;;;;;;;9.60;1.98;;;;;;;4.51;86.24;98718.25;10336256;28;20050;-74
2022/02/02 00:52:00;;;;;;;12.95;2.35;;;;;;;4.67;84.86;98710.88;10424714;28;20102;-74
2022/02/02 00:57:01;;;;;;;9.98;1.92;;;;;;;4.70;84.09;98723.81;10460451;28;20483;-75
2022/02/02 01:02:03;;;;;;;14.43;2.75;;;;;;;4.73;84.01;98724.53;10442585;28;20064;-75
2022/02/02 01:28:00;;;;;;;12.30;2.58;;;;;;;4.84;78.54;98724.25;10461221;28;20102;-74
2022/02/02 01:33:02;;;;;;;14.38;3.20;;;;;;;4.76;78.25;98728.81;10460118;28;20055;-74
2022/02/02 01:38:05;;;;;;;13.95;3.03;;;;;;;4.74;78.16;98725.41;10442825;28;20063;-74
2022/02/02 01:43:12;;;;;;;14.32;3.22;;;;;;;4.70;78.73;98731.63;10461400;28;20049;-74
2022/02/02 01:48:40;;;;;;;23.65;3.35;;;;;;;4.54;80.36;98733.78;10460469;28;20099;-74
2022/02/02 01:53:59;;;;;;;18.10;3.08;;;;;;;4.51;81.13;98750.31;10447153;22;20103;-75
2022/02/02 01:59:08;;;;;;;21.65;3.25;;;;;;;4.46;83.80;98743.53;10420792;28;20499;-75
2022/02/02 02:04:09;;;;;;;17.38;3.15;;;;;;;4.26;85.61;98742.34;10424811;28;20068;-75
2022/02/02 02:09:11;;;;;;;18.60;3.03;;;;;;;4.60;81.71;98743.16;10419803;28;20475;-74
2022/02/02 02:19:36;;;;;;;14.30;3.17;;;;;;;4.71;78.79;98751.53;10428132;28;20060;-74
2022/02/02 02:24:39;;;;;;;17.15;3.55;;;;;;;4.69;78.39;98753.31;10431031;28;20041;-74
2022/02/02 02:29:58;;;;;;;17.77;3.58;;;;;;;4.70;76.94;98758.50;10428519;28;20038;-75
2022/02/02 02:55:57;;;;;;;14.35;3.03;;;;;;;4.78;76.03;98751.31;10426991;28;20041;-75
2022/02/02 03:01:28;;;;;;;15.32;4.18;;;;;;;4.87;75.27;98751.94;10428301;28;20045;-75
2022/02/02 03:49:53;;;;;;;10.77;2.65;;;;;;;4.94;73.05;98782.09;10424009;28;20071;-74
2022/02/02 04:05:36;;;;;;;12.97;4.63;;;;;;;4.85;73.06;98796.25;10426239;28;20494;-76
2022/02/02 04:10:37;;;;;;;24.55;2.38;;;;;;;4.78;72.83;98803.38;10424850;28;20046;-76
2022/02/02 04:58:23;;;;;;;11.88;2.70;;;;;;;4.37;73.25;98840.06;10424115;28;20045;-74
2022/02/02 05:56:05;;;;;;;23.75;4.32;;;;;;;4.04;75.60;98882.47;10451037;28;20098;-75
2022/02/02 06:01:09;;;;;;;15.43;2.80;;;;;;;3.99;75.28;98884.34;10472308;28;20118;-75
2022/02/02 06:06:12;;;;;;;14.70;3.40;;;;;;;3.96;75.61;98888.75;10451640;28;20112;-75
2022/02/02 06:11:16;;;;;;;12.30;2.60;;;;;;;4.04;74.86;98873.84;10450806;28;20076;-75
2022/02/02 06:16:20;;;;;;;14.20;3.25;;;;;;;4.05;74.74;98899.78;10448798;28;20071;-74
2022/02/02 06:21:26;;;;;;;13.18;3.17;;;;;;;4.08;73.85;98922.28;10470033;28;20044;-75
2022/02/02 06:26:29;;;;;;;20.43;3.20;;;;;;;4.11;73.70;98916.97;10468330;28;20545;-75
2022/02/02 06:31:36;;;;;;;14.70;3.38;;;;;;;4.05;74.46;98931.00;10467903;28;20513;-75
2022/02/02 06:36:38;;;;;;;;;;;;;;;4.08;74.31;98960.44;10468698;28;20156;-75
2022/02/02 06:41:40;;;;;;;14.90;3.53;;;;;;;4.18;73.83;98948.91;10467641;28;19951;-78
2022/02/02 06:46:43;;;;;;;15.35;2.50;;;;;;;4.11;74.31;98956.00;10451917;28;20072;-74
2022/02/02 06:52:01;;;;;;;13.48;3.08;;;;;;;4.09;74.40;98954.34;10466719;28;20429;-74
2022/02/02 06:57:15;;;;;;;17.92;4.90;;;;;;;4.14;73.97;98981.94;10447996;28;20045;-74
2022/02/02 07:24:58;;;;;;;19.95;4.10;;;;;;;4.23;73.47;99025.94;10465973;28;20040;-74
2022/02/02 07:29:22;;;;;;;17.40;3.38;;;;;;;4.21;73.59;99042.50;10458412;28;20064;-73
2022/02/02 07:34:44;;;;;;;16.88;3.63;;;;;;;4.14;74.43;99043.50;10465470;28;20071;-74
2022/02/02 07:39:46;;;;;;;8.68;2.40;;;;;;;4.24;73.78;99056.28;10448622;28;20075;-74
2022/02/02 07:44:52;;;;;;;12.65;3.33;;;;;;;4.10;75.67;99060.91;10466846;28;20053;-74
2022/02/02 07:49:56;;;;;;;15.35;3.00;;;;;;;3.97;75.67;99075.91;10467652;28;20045;-74
2022/02/02 07:55:01;;;;;;;12.85;2.97;;;;;;;3.99;76.28;99070.72;10529125;22;20543;-69
2022/02/02 08:00:09;;;;;;;12.00;3.20;;;;;;;3.92;77.67;99089.91;10546027;28;20036;-70
2022/02/02 08:05:18;;;;;;;13.20;3.60;;;;;;;3.94;78.82;99086.41;10543953;28;20044;-68
2022/02/02 08:10:22;;;;;;;15.48;3.63;;;;;;;3.83;79.60;99093.53;10544327;28;20041;-70
2022/02/02 08:15:28;;;;;;;11.88;2.30;;;;;;;3.96;78.80;99105.41;10543949;28;20040;-70
2022/02/02 08:20:31;;;;;;;12.93;2.63;;;;;;;3.97;78.96;99124.47;10512391;28;20052;-71
2022/02/02 08:25:34;;;;;;;14.68;3.13;;;;;;;3.78;81.49;99123.97;10545571;28;20071;-68
2022/02/02 08:30:36;;;;;;;14.85;2.92;;;;;;;3.71;82.76;99146.59;10523823;28;20043;-69
2022/02/02 08:35:51;;;;;;;22.40;3.33;;;;;;;3.71;83.14;99150.94;10542142;28;20048;-70
2022/02/02 08:41:08;;;;;;;16.70;3.55;;;;;;;3.79;81.70;99152.53;10523892;28;20044;-68
2022/02/02 08:51:48;;;;;;;11.68;3.67;;;;;;;3.97;81.96;99179.06;10371417;28;20089;-69
2022/02/02 09:02:22;;;;;;;29.08;3.25;;;;;;;4.12;79.13;99197.00;10356632;28;20096;-69
2022/02/02 09:07:24;;;;;;;13.77;2.67;;;;;;;4.08;79.23;99205.75;10358150;28;20054;-69
2022/02/02 09:38:57;;;;;;;14.52;4.18;;;;;;;4.35;77.34;99226.91;10540211;28;20098;-70
2022/02/02 09:44:03;;;;;;;16.40;2.72;;;;;;;4.45;76.86;99244.06;10542087;28;20048;-68
2022/02/02 09:49:10;;;;;;;15.68;3.00;;;;;;;4.50;76.44;99248.28;10542361;28;20040;-68
2022/02/02 09:54:38;;;;;;;;;;;;;;;4.67;74.76;99260.97;10541550;28;20085;-68
2022/02/02 09:59:58;;;;;;;12.35;2.83;;;;;;;4.76;74.19;99291.16;10548330;28;19950;-68
2022/02/02 10:05:13;;;;;;;15.80;3.25;;;;;;;4.80;73.53;99292.81;10575209;28;20051;-70
2022/02/02 10:15:35;;;;;;;19.00;2.85;;;;;;;4.63;73.54;99297.50;10562188;28;20496;-69
2022/02/02 10:20:37;;;;;;;13.40;2.97;;;;;;;4.63;73.26;99302.69;10563785;28;20044;-68
2022/02/02 10:25:43;;;;;;;11.73;2.83;;;;;;;4.78;72.33;99305.00;10551956;28;20044;-69
2022/02/02 10:30:48;;;;;;;13.57;2.40;;;;;;;4.77;72.15;99305.88;10544496;28;20101;-71
2022/02/02 10:35:52;;;;;;;17.27;4.03;;;;;;;4.75;72.26;99298.13;10529558;28;20048;-70
2022/02/02 10:41:16;;;;;;;18.42;2.88;;;;;;;4.59;72.39;99314.06;10547107;28;20036;-71
2022/02/02 10:46:36;;;;;;;12.15;2.88;;;;;;;4.66;72.54;99320.88;10547003;28;20047;-69
2022/02/02 11:06:59;;;;;;;9.15;2.15;;;;;;;4.95;71.16;99323.75;10544135;28;20570;-71
2022/02/02 11:12:03;;;;;;;14.50;3.80;;;;;;;5.14;70.20;99329.44;10545562;28;20499;-70
2022/02/02 11:17:33;;;;;;;14.32;2.70;;;;;;;5.23;68.59;99336.22;10545130;28;20036;-72
2022/02/02 11:22:44;;;;;;;17.17;3.33;;;;;;;5.25;67.66;99342.25;10545405;28;20448;-71
2022/02/02 11:27:49;;;;;;;9.38;2.33;;;;;;;5.40;67.66;99352.34;10546092;28;20032;-70
2022/02/02 11:32:52;;;;;;;23.83;3.67;;;;;;;5.86;67.54;99368.69;10545161;28;20057;-70
2022/02/02 11:37:56;;;;;;;10.18;2.05;;;;;;;5.90;66.60;99362.53;10528396;28;20400;-71
2022/02/02 11:43:05;;;;;;;12.57;2.22;;;;;;;5.66;64.40;99375.22;10546048;28;20051;-70
2022/02/02 11:48:16;;;;;;;8.07;3.28;;;;;;;5.67;66.88;99386.53;10544624;28;20036;-69
2022/02/02 11:53:50;;;;;;;11.65;3.40;;;;;;;5.62;67.77;99383.13;10525749;28;20136;-70
2022/02/02 11:58:52;;;;;;;19.75;7.03;;;;;;;5.45;68.96;99386.13;10525646;28;20466;-69
2022/02/02 12:04:07;;;;;;;8.73;3.78;;;;;;;5.65;67.97;99396.97;10545499;28;20101;-70
2022/02/02 12:09:25;;;;;;;12.57;2.70;;;;;;;5.71;66.75;99393.34;10546202;28;20044;-70
2022/02/02 12:57:38;;;;;;;9.57;3.88;;;;;;;5.61;64.04;99475.28;10501232;28;20390;-70
2022/02/02 13:02:41;;;;;;;14.55;1.50;;;;;;;5.60;64.64;99505.72;10542387;28;20044;-71
2022/02/02 13:07:43;;;;;;;6.10;2.03;;;;;;;5.53;64.93;99505.00;10541249;28;20100;-71
2022/02/02 13:12:55;;;;;;;9.55;1.77;;;;;;;5.39;65.16;99519.16;10524439;28;20473;-70
2022/02/02 13:23:17;;;;;;;8.10;1.42;;;;;;;5.49;64.75;99542.44;10541379;28;20098;-71
2022/02/02 13:34:19;;;;;;;7.57;1.70;;;;;;;5.38;64.96;99582.63;10541564;28;20113;-70
2022/02/02 13:56:03;;;;;;;7.80;1.40;;;;;;;5.04;67.36;99630.94;10543322;28;20047;-71
2022/02/02 14:01:14;;;;;;;5.55;1.45;;;;;;;5.05;67.55;99640.50;10524901;28;20508;-71
2022/02/02 14:25:40;;;;;;;12.00;2.40;;;;;;;5.11;66.22;99662.97;10551002;28;20100;-71
2022/02/02 14:33:18;;;;;;;8.52;1.40;;;;;;;5.51;63.20;99704.03;10508839;28;20049;-81
2022/02/02 14:38:23;;;;;;;9.65;2.53;;;;;;;5.31;63.81;99713.03;10507730;28;20055;-82
2022/02/02 14:48:55;;;;;;;8.15;1.70;;;;;;;4.97;65.48;99743.94;10529072;28;20078;-82
2022/02/02 15:31:03;;;;;;;9.65;3.50;;;;;;;4.63;71.47;99824.19;10501775;28;20601;-80
2022/02/02 15:41:37;;;;;;;9.18;2.53;;;;;;;4.36;72.54;99855.72;10519157;28;20074;-79
2022/02/02 15:58:07;;;;;;;11.70;2.85;;;;;;;4.11;71.70;99904.50;10547871;28;20036;-78
2022/02/02 16:03:04;;;;;;;25.80;14.10;;;;;;;4.18;74.56;99934.81;10534550;28;20033;-79
2022/02/02 16:08:09;;;;;;;7.43;2.70;;;;;;;3.88;77.28;99926.31;10518117;28;20072;-78
2022/02/02 16:13:16;;;;;;;10.70;4.05;;;;;;;4.09;76.90;99937.47;10534241;28;20021;-79
2022/02/02 16:18:35;;;;;;;14.50;2.60;;;;;;;3.93;76.55;99944.50;10533862;28;20063;-79
2022/02/02 16:39:50;;;;;;;9.43;2.53;;;;;;;3.61;79.20;99987.13;10646691;27;20058;-74
2022/02/02 16:44:52;;;;;;;12.32;1.65;;;;;;;3.88;76.41;100001.75;10647461;27;20081;-75
2022/02/02 16:49:54;;;;;;;17.30;2.72;;;;;;;3.70;77.18;100012.22;10604972;27;20043;-75
2022/02/02 16:55:07;;;;;;;10.10;3.25;;;;;;;3.56;77.70;100004.50;10594908;28;20043;-74
2022/02/02 17:43:04;;;;;;;10.13;1.83;;;;;;;3.80;72.01;100089.31;10605943;28;20055;-75
2022/02/02 18:19:54;;;;;;;5.97;1.95;;;;;;;3.66;74.45;100140.47;10604934;28;20051;-74
2022/02/02 18:25:12;;;;;;;8.02;1.70;;;;;;;3.72;73.61;100151.75;10607795;28;20101;-75
2022/02/02 18:30:31;;;;;;;7.60;2.50;;;;;;;3.45;75.38;100147.47;10604233;28;20044;-76
2022/02/02 18:35:43;;;;;;;6.63;1.48;;;;;;;3.50;74.81;100145.72;10604655;28;20043;-75
2022/02/02 18:52:25;;;;;;;7.35;1.73;;;;;;;3.51;74.78;100178.63;10602488;28;20446;-74
2022/02/02 19:02:47;;;;;;;7.85;1.40;;;;;;;3.66;73.28;100189.88;10602463;28;20202;-76
2022/02/02 19:15:11;;;;;;;2.78;1.30;;;;;;;3.43;74.47;100216.75;10602872;28;20057;-76
2022/02/02 19:56:18;;;;;;;7.38;1.70;;;;;;;3.26;74.16;100280.81;10583042;28;20108;-76
2022/02/02 20:06:47;;;;;;;4.80;1.23;;;;;;;3.21;73.73;100290.34;10599825;28;20047;-76
2022/02/02 20:11:50;;;;;;;6.28;1.67;;;;;;;3.24;73.82;100313.75;10593049;28;20070;-75
2022/02/02 20:16:52;;;;;;;6.00;1.38;;;;;;;3.16;74.20;100305.06;10597743;28;20054;-76
2022/02/02 20:22:04;;;;;;;8.88;1.35;;;;;;;3.17;74.05;100309.38;10591699;28;20059;-76
2022/02/02 20:27:08;;;;;;;5.07;1.10;;;;;;;3.11;74.10;100307.63;10591994;28;20412;-76
2022/02/02 20:32:13;;;;;;;6.00;1.60;;;;;;;3.17;73.50;100302.44;10594985;28;20342;-76
2022/02/02 20:37:19;;;;;;;7.25;1.55;;;;;;;3.08;73.78;100319.75;10598581;28;20047;-75
2022/02/02 20:42:35;;;;;;;6.72;1.60;;;;;;;3.07;74.18;100326.66;10585777;28;20497;-76
2022/02/02 21:04:16;;;;;;;8.95;1.42;;;;;;;3.18;73.33;100342.28;10581016;22;20037;-77
2022/02/02 21:09:32;;;;;;;6.22;1.40;;;;;;;3.12;73.78;100344.88;10450952;28;20114;-77
2022/02/02 21:14:39;;;;;;;4.45;1.50;;;;;;;3.13;73.15;100344.00;10458940;28;20557;-76
2022/02/02 21:19:51;;;;;;;16.10;1.75;;;;;;;2.88;73.61;100351.72;10458599;28;20116;-77
2022/02/02 21:25:06;;;;;;;7.07;1.40;;;;;;;2.75;74.09;100352.50;10442726;28;20071;-77
2022/02/02 21:30:09;;;;;;;11.57;2.45;;;;;;;2.78;73.94;100355.97;10441979;28;20044;-77
2022/02/02 21:35:16;;;;;;;5.40;1.50;;;;;;;2.49;75.02;100367.94;10458892;28;20041;-75
2022/02/02 21:40:25;;;;;;;8.95;1.40;;;;;;;2.69;74.43;100381.88;10440900;28;20055;-77
2022/02/02 21:45:29;;;;;;;5.38;1.77;;;;;;;2.65;74.60;100387.03;10459045;28;20129;-76
2022/02/02 21:50:43;;;;;;;9.20;1.60;;;;;;;2.58;74.72;100398.25;10458285;28;20049;-75
2022/02/02 21:55:45;;;;;;;5.70;1.45;;;;;;;2.41;75.25;100399.00;10439890;28;20052;-76
2022/02/02 22:00:47;;;;;;;5.90;1.40;;;;;;;2.45;75.69;100405.97;10458795;28;20045;-76
2022/02/02 22:05:49;;;;;;;8.30;2.20;;;;;;;2.19;76.72;100417.84;10458954;28;20036;-76
2022/02/02 22:10:51;;;;;;;8.13;1.92;;;;;;;2.27;76.13;100422.25;10442203;28;20490;-77
2022/02/02 22:15:55;;;;;;;13.38;2.53;;;;;;;2.38;75.95;100426.66;10458836;28;20045;-75
2022/02/02 22:20:56;;;;;;;13.20;2.10;;;;;;;2.42;75.61;100421.50;10441602;28;20041;-76
2022/02/02 22:25:58;;;;;;;10.77;1.80;;;;;;;2.26;76.28;100422.25;10443124;28;20111;-76
2022/02/02 22:31:00;;;;;;;11.15;2.45;;;;;;;2.11;77.13;100427.28;10466021;28;20049;-75
2022/02/02 22:36:02;;;;;;;10.05;2.10;;;;;;;2.07;77.52;100441.94;10447787;28;20040;-75
2022/02/02 22:41:03;;;;;;;8.02;2.10;;;;;;;1.85;78.39;100440.00;10465772;28;20462;-77
2022/02/02 22:46:05;;;;;;;12.02;1.98;;;;;;;1.79;78.69;100453.78;10465423;28;20163;-75
2022/02/02 22:51:08;;;;;;;16.88;2.10;;;;;;;1.80;78.72;100454.66;10465054;28;20053;-77
2022/02/02 22:56:10;;;;;;;8.20;2.05;;;;;;;1.88;78.39;100453.88;10465435;28;20128;-76
2022/02/02 23:01:11;;;;;;;10.48;1.73;;;;;;;1.70;79.41;100464.06;10464942;28;20041;-76
2022/02/02 23:06:13;;;;;;;10.27;2.00;;;;;;;1.91;78.50;100460.81;10447197;28;20391;-76
2022/02/02 23:11:19;;;;;;;14.75;2.28;;;;;;;1.97;77.91;100471.25;10466453;28;20348;-76
2022/02/02 23:16:26;;;;;;;9.27;1.90;;;;;;;1.85;78.23;100466.78;10466126;28;20460;-76
2022/02/02 23:21:28;;;;;;;11.18;2.10;;;;;;;2.07;77.41;100469.59;10464599;28;20441;-77
2022/02/02 23:26:31;;;;;;;16.02;2.08;;;;;;;2.01;77.46;100467.84;10464071;28;20048;-76
2022/02/02 23:31:34;;;;;;;15.68;3.13;;;;;;;1.88;78.18;100473.75;10464448;28;20068;-76
2022/02/02 23:36:35;;;;;;;12.82;2.25;;;;;;;1.77;78.86;100479.69;10463594;28;20053;-77
2022/02/02 23:46:44;;;;;;;8.50;1.70;;;;;;;1.81;78.57;100488.34;10463206;28;20562;-76
2022/02/02 23:51:48;;;;;;;17.98;2.72;;;;;;;1.78;78.88;100501.28;10445637;28;20148;-76
2022/02/02 23:57:00;;;;;;;11.85;1.80;;;;;;;1.75;79.19;100507.31;10446375;28;20053;-77
